createdAt,value
2022-11-09T00:01:31.599Z,81.72
2022-11-09T00:04:00.844Z,81.81
2022-11-09T00:06:29.638Z,81.76
2022-11-09T00:08:59.418Z,81.67
2022-11-09T00:11:31.750Z,81.00
2022-11-09T00:13:59.468Z,81.29
2022-11-09T00:16:27.379Z,81.10
2022-11-09T00:18:56.017Z,80.88
2022-11-09T00:21:26.315Z,81.14
2022-11-09T00:23:54.612Z,81.29
2022-11-09T00:26:23.390Z,80.70
2022-11-09T00:28:52.882Z,80.50
2022-11-09T00:31:22.875Z,80.89
2022-11-09T00:33:52.236Z,80.97
2022-11-09T00:36:21.697Z,80.51
2022-11-09T00:38:51.065Z,80.54
2022-11-09T00:41:19.585Z,81.02
2022-11-09T00:43:48.187Z,80.57
2022-11-09T00:46:18.769Z,80.61
2022-11-09T00:48:47.488Z,80.29
2022-11-09T00:51:15.876Z,80.41
2022-11-09T00:53:43.747Z,81.07
2022-11-09T00:56:13.837Z,80.97
2022-11-09T00:58:42.489Z,81.70
2022-11-09T01:01:13.759Z,81.32
2022-11-09T01:03:45.256Z,81.05
2022-11-09T01:06:16.978Z,81.43
2022-11-09T01:08:45.376Z,81.40
2022-11-09T01:11:16.271Z,81.13
2022-11-09T01:13:44.849Z,81.17
2022-11-09T01:16:15.037Z,80.56
2022-11-09T01:18:44.551Z,80.48
2022-11-09T01:21:15.371Z,80.04
2022-11-09T01:23:43.866Z,80.26
2022-11-09T01:26:13.723Z,79.82
2022-11-09T01:28:42.191Z,80.19
2022-11-09T01:31:14.304Z,80.03
2022-11-09T01:33:44.353Z,80.11
2022-11-09T01:36:15.193Z,80.28
2022-11-09T01:38:44.275Z,79.67
2022-11-09T01:41:15.631Z,79.88
2022-11-09T01:43:43.959Z,79.73
2022-11-09T01:46:18.242Z,79.42
2022-11-09T01:48:53.599Z,79.12
2022-11-09T01:51:27.435Z,78.78
2022-11-09T01:54:00.724Z,79.02
2022-11-09T01:56:30.276Z,79.60
2022-11-09T01:59:02.546Z,79.40
2022-11-09T02:01:32.887Z,78.41
2022-11-09T02:04:08.203Z,77.68
2022-11-09T02:06:37.535Z,76.42
2022-11-09T02:09:12.750Z,76.68
2022-11-09T02:11:41.793Z,75.56
2022-11-09T02:14:09.881Z,76.17
2022-11-09T02:16:39.264Z,75.95
2022-11-09T02:19:08.584Z,74.93
2022-11-09T02:21:38.106Z,74.11
2022-11-09T02:24:07.031Z,74.73
2022-11-09T02:26:40.181Z,73.64
2022-11-09T02:29:11.337Z,73.93
2022-11-09T02:31:43.266Z,73.94
2022-11-09T02:34:15.049Z,74.52
2022-11-09T02:36:44.726Z,75.16
2022-11-09T02:39:20.085Z,74.85
2022-11-09T02:41:51.570Z,75.19
2022-11-09T02:44:20.184Z,76.15
2022-11-09T02:46:48.412Z,76.45
2022-11-09T02:49:16.285Z,77.52
2022-11-09T02:51:45.730Z,77.29
2022-11-09T02:54:14.501Z,77.54
2022-11-09T02:56:42.657Z,77.40
2022-11-09T02:59:10.550Z,76.80
2022-11-09T03:01:40.316Z,76.15
2022-11-09T03:04:08.137Z,76.12
2022-11-09T03:06:37.600Z,75.49
2022-11-09T03:09:13.841Z,75.77
2022-11-09T03:11:43.635Z,76.05
2022-11-09T03:14:14.675Z,76.54
2022-11-09T03:16:50.756Z,76.64
2022-11-09T03:19:19.273Z,76.71
2022-11-09T03:21:51.319Z,76.95
2022-11-09T03:24:24.582Z,77.41
2022-11-09T03:26:56.357Z,77.55
2022-11-09T03:29:24.616Z,77.97
2022-11-09T03:31:52.485Z,77.49
2022-11-09T03:34:20.186Z,77.57
2022-11-09T03:36:48.332Z,77.91
2022-11-09T03:39:16.047Z,77.59
2022-11-09T03:41:45.219Z,77.68
2022-11-09T03:44:12.958Z,77.75
2022-11-09T03:46:40.726Z,78.20
2022-11-09T03:49:08.480Z,78.58
2022-11-09T03:51:36.191Z,78.70
2022-11-09T03:54:04.265Z,78.17
2022-11-09T03:56:32.417Z,77.81
2022-11-09T03:59:01.539Z,78.48
2022-11-09T04:01:29.759Z,78.58
2022-11-09T04:03:57.523Z,78.64
2022-11-09T04:06:25.731Z,78.34
2022-11-09T04:08:53.492Z,78.02
2022-11-09T04:11:21.529Z,77.88
2022-11-09T04:13:49.314Z,77.22
2022-11-09T04:16:19.049Z,76.95
2022-11-09T04:18:46.770Z,76.31
2022-11-09T04:21:14.907Z,76.92
2022-11-09T04:23:42.718Z,77.01
2022-11-09T04:26:11.025Z,76.86
2022-11-09T04:28:39.079Z,77.64
2022-11-09T04:31:07.267Z,77.51
2022-11-09T04:33:36.451Z,76.39
2022-11-09T04:36:05.017Z,75.11
2022-11-09T04:38:33.212Z,74.83
2022-11-09T04:41:02.287Z,75.34
2022-11-09T04:43:30.350Z,75.68
2022-11-09T04:46:01.121Z,75.51
2022-11-09T04:48:29.259Z,76.06
2022-11-09T04:51:02.275Z,74.34
2022-11-09T04:53:31.548Z,73.27
2022-11-09T04:55:59.708Z,73.26
2022-11-09T04:58:28.193Z,71.54
2022-11-09T05:00:56.085Z,70.62
2022-11-09T05:03:24.400Z,71.35
2022-11-09T05:05:52.185Z,70.71
2022-11-09T05:08:21.638Z,70.11
2022-11-09T05:10:49.463Z,70.90
2022-11-09T05:13:17.445Z,72.83
2022-11-09T05:15:45.538Z,72.43
2022-11-09T05:18:13.809Z,73.06
2022-11-09T05:20:41.551Z,72.83
2022-11-09T05:23:50.505Z,73.41
2022-11-09T05:26:18.278Z,73.68
2022-11-09T05:28:46.593Z,74.35
2022-11-09T05:31:14.682Z,75.17
2022-11-09T05:33:42.508Z,75.94
2022-11-09T05:36:10.545Z,75.95
2022-11-09T05:38:39.680Z,76.48
2022-11-09T05:41:07.523Z,77.48
2022-11-09T05:43:35.580Z,77.79
2022-11-09T05:46:06.574Z,77.57
2022-11-09T05:48:35.026Z,77.42
2022-11-09T05:51:04.163Z,75.73
2022-11-09T05:53:33.131Z,74.35
2022-11-09T05:56:07.499Z,72.93
2022-11-09T05:58:39.033Z,70.78
2022-11-09T06:01:07.727Z,69.45
2022-11-09T06:03:36.539Z,69.30
2022-11-09T06:06:08.706Z,69.69
2022-11-09T06:08:37.509Z,72.02
2022-11-09T06:11:09.796Z,72.02
2022-11-09T06:13:38.199Z,72.16
2022-11-09T06:16:07.208Z,72.60
2022-11-09T06:18:37.228Z,73.50
2022-11-09T06:21:06.397Z,74.57
2022-11-09T06:23:35.070Z,74.81
2022-11-09T06:26:06.373Z,74.64
2022-11-09T06:28:36.053Z,73.38
2022-11-09T06:31:05.445Z,71.72
2022-11-09T06:33:35.353Z,70.13
2022-11-09T06:36:03.859Z,69.40
2022-11-09T06:38:32.107Z,67.42
2022-11-09T06:41:00.775Z,66.46
2022-11-09T06:43:29.420Z,65.66
2022-11-09T06:45:58.838Z,64.54
2022-11-09T06:48:26.982Z,64.23
2022-11-09T06:50:54.791Z,64.01
2022-11-09T06:53:23.817Z,63.57
2022-11-09T06:55:52.414Z,63.31
2022-11-09T06:58:20.787Z,63.10
2022-11-09T07:00:48.944Z,62.74
2022-11-09T07:03:20.557Z,62.67
2022-11-09T07:05:50.235Z,62.59
2022-11-09T07:08:19.154Z,62.27
2022-11-09T07:10:47.818Z,62.14
2022-11-09T07:13:15.651Z,61.79
2022-11-09T07:15:43.673Z,61.55
2022-11-09T07:18:13.188Z,61.41
2022-11-09T07:20:42.906Z,61.63
2022-11-09T07:23:10.629Z,61.01
2022-11-09T07:25:38.673Z,61.85
2022-11-09T07:28:07.608Z,63.47
2022-11-09T07:30:36.562Z,63.47
2022-11-09T07:33:09.573Z,63.98
2022-11-09T07:35:38.828Z,64.01
2022-11-09T07:38:08.395Z,64.18
2022-11-09T07:40:36.812Z,64.43
2022-11-09T07:43:06.434Z,64.38
2022-11-09T07:45:36.891Z,64.65
2022-11-09T07:48:08.088Z,65.24
2022-11-09T07:50:38.753Z,65.13
2022-11-09T07:53:08.768Z,65.28
2022-11-09T07:55:37.550Z,65.53
2022-11-09T07:58:06.977Z,66.26
2022-11-09T08:00:37.523Z,66.75
2022-11-09T08:03:06.096Z,67.02
2022-11-09T08:05:34.760Z,67.19
2022-11-09T08:08:04.770Z,66.69
2022-11-09T08:10:36.309Z,66.76
2022-11-09T08:13:06.722Z,67.31
2022-11-09T08:15:36.804Z,67.51
2022-11-09T08:18:07.886Z,67.64
2022-11-09T08:20:36.506Z,67.49
2022-11-09T08:23:05.301Z,66.50
2022-11-09T08:25:36.438Z,67.11
2022-11-09T08:28:04.577Z,67.13
2022-11-09T08:30:32.964Z,65.75
2022-11-09T08:33:01.566Z,64.25
2022-11-09T08:35:31.463Z,63.65
2022-11-09T08:38:02.750Z,63.28
2022-11-09T08:40:32.689Z,61.65
2022-11-09T08:43:04.801Z,58.53
2022-11-09T08:45:34.446Z,57.90
2022-11-09T08:48:02.997Z,58.23
2022-11-09T08:50:31.975Z,57.95
2022-11-09T08:52:59.885Z,59.42
2022-11-09T08:55:28.300Z,56.61
2022-11-09T08:57:57.110Z,56.44
2022-11-09T09:00:27.357Z,57.47
2022-11-09T09:02:55.308Z,57.84
2022-11-09T09:05:23.295Z,59.50
2022-11-09T09:07:51.053Z,60.68
2022-11-09T09:10:19.410Z,61.72
2022-11-09T09:12:47.511Z,62.94
2022-11-09T09:15:15.228Z,62.99
2022-11-09T09:17:44.296Z,63.79
2022-11-09T09:20:12.549Z,62.31
2022-11-09T09:22:40.914Z,60.10
2022-11-09T09:25:10.304Z,58.83
2022-11-09T09:27:38.133Z,56.61
2022-11-09T09:30:07.290Z,55.04
2022-11-09T09:32:35.015Z,56.36
2022-11-09T09:35:04.713Z,59.00
2022-11-09T09:37:32.399Z,62.51
2022-11-09T09:40:00.570Z,62.49
2022-11-09T09:42:32.739Z,62.21
2022-11-09T09:45:05.871Z,63.05
2022-11-09T09:47:46.063Z,64.98
2022-11-09T09:50:20.003Z,64.97
2022-11-09T09:53:22.021Z,66.29
2022-11-09T09:55:44.935Z,66.86
2022-11-09T09:58:14.873Z,67.22
2022-11-09T10:00:44.518Z,67.48
2022-11-09T10:03:18.443Z,69.03
2022-11-09T10:05:56.454Z,68.56
2022-11-09T10:08:34.606Z,68.51
2022-11-09T10:11:13.862Z,69.08
2022-11-09T10:14:05.411Z,69.19
2022-11-09T10:16:42.099Z,68.31
2022-11-09T10:19:27.389Z,69.14
2022-11-09T10:22:03.987Z,68.57
2022-11-09T10:24:58.773Z,67.49
2022-11-09T10:27:35.205Z,66.18
2022-11-09T10:30:08.804Z,65.32
2022-11-09T10:32:37.268Z,67.02
2022-11-09T10:35:16.541Z,65.89
2022-11-09T10:37:49.030Z,64.43
2022-11-09T10:40:20.930Z,62.97
2022-11-09T10:43:11.494Z,62.89
2022-11-09T10:46:05.275Z,63.34
2022-11-09T10:48:53.333Z,65.95
2022-11-09T10:51:42.297Z,65.42
2022-11-09T10:54:32.527Z,65.56
2022-11-09T10:57:21.163Z,67.23
2022-11-09T11:00:16.115Z,67.08
2022-11-09T11:03:12.552Z,67.30
2022-11-09T11:06:01.022Z,67.56
2022-11-09T11:08:49.491Z,67.79
2022-11-09T11:11:39.526Z,65.00
2022-11-09T11:14:33.036Z,65.97
2022-11-09T11:17:24.495Z,66.53
2022-11-09T11:20:31.628Z,67.76
2022-11-09T11:23:21.411Z,67.51
2022-11-09T11:26:24.972Z,68.80
2022-11-09T11:29:32.503Z,69.24
2022-11-09T11:32:21.261Z,70.28
2022-11-09T11:35:15.363Z,69.30
2022-11-09T11:38:16.250Z,68.84
2022-11-09T11:41:16.418Z,68.23
2022-11-09T11:44:09.566Z,68.59
2022-11-09T11:47:03.897Z,68.65
2022-11-09T11:50:01.225Z,67.81
2022-11-09T11:53:00.856Z,66.27
2022-11-09T11:56:09.098Z,67.06
2022-11-09T11:59:09.987Z,66.61
2022-11-09T12:02:36.013Z,65.38
2022-11-09T12:05:38.563Z,65.81
2022-11-09T12:08:32.640Z,66.92
2022-11-09T12:11:35.609Z,67.00
2022-11-09T12:14:33.265Z,67.49
2022-11-09T12:17:29.744Z,68.25
2022-11-09T12:20:27.146Z,68.06
2022-11-09T12:23:30.561Z,67.36
2022-11-09T12:26:24.413Z,66.87
2022-11-09T12:29:20.440Z,66.58
2022-11-09T12:32:18.506Z,66.34
2022-11-09T12:35:21.496Z,66.22
2022-11-09T12:38:15.428Z,65.96
2022-11-09T12:41:06.436Z,65.64
2022-11-09T12:43:56.300Z,64.66
2022-11-09T12:46:50.362Z,64.81
2022-11-09T12:49:40.062Z,64.91
2022-11-09T12:52:31.120Z,65.06
2022-11-09T12:55:22.152Z,64.98
2022-11-09T12:58:08.995Z,65.76
2022-11-09T13:00:57.446Z,65.39
2022-11-09T13:03:55.107Z,65.42
2022-11-09T13:06:42.549Z,64.74
2022-11-09T13:09:44.072Z,65.43
2022-11-09T13:12:37.553Z,64.83
2022-11-09T13:15:26.723Z,65.08
2022-11-09T13:18:25.826Z,65.10
2022-11-09T13:21:39.969Z,65.08
2022-11-09T13:24:56.227Z,63.54
2022-11-09T13:27:45.722Z,64.85
2022-11-09T13:30:41.699Z,64.92
2022-11-09T13:33:28.705Z,65.40
2022-11-09T13:36:18.277Z,62.85
2022-11-09T13:39:29.054Z,62.54
2022-11-09T13:42:31.937Z,62.70
2022-11-09T13:45:29.897Z,63.02
2022-11-09T13:48:34.935Z,63.43
2022-11-09T13:51:24.147Z,63.76
2022-11-09T13:54:29.873Z,63.41
2022-11-09T13:57:17.548Z,62.81
2022-11-09T14:00:09.272Z,62.83
2022-11-09T14:02:58.246Z,63.48
2022-11-09T14:05:45.672Z,65.00
2022-11-09T14:08:40.447Z,65.49
2022-11-09T14:11:59.038Z,65.97
2022-11-09T14:15:22.322Z,68.17
2022-11-09T14:18:20.463Z,67.77
2022-11-09T14:21:16.440Z,67.93
2022-11-09T14:24:04.641Z,67.86
2022-11-09T14:27:02.755Z,68.92
2022-11-09T14:29:55.542Z,68.93
2022-11-09T14:32:49.583Z,69.30
2022-11-09T14:35:39.321Z,69.05
2022-11-09T14:38:29.388Z,69.26
2022-11-09T14:41:22.402Z,69.60
2022-11-09T14:44:16.974Z,71.18
2022-11-09T14:47:04.898Z,71.17
2022-11-09T14:49:53.675Z,71.59
2022-11-09T14:52:41.452Z,71.63
2022-11-09T14:55:29.711Z,72.09
2022-11-09T14:58:16.981Z,72.09
2022-11-09T15:01:09.657Z,73.36
2022-11-09T15:04:11.533Z,74.65
2022-11-09T15:07:02.457Z,74.20
2022-11-09T15:09:52.426Z,74.10
2022-11-09T15:12:43.870Z,74.42
2022-11-09T15:15:35.596Z,74.92
2022-11-09T15:18:33.598Z,74.98
2022-11-09T15:21:33.539Z,75.14
2022-11-09T15:24:23.012Z,75.10
2022-11-09T15:27:29.408Z,74.89
2022-11-09T15:30:28.866Z,74.84
2022-11-09T15:33:25.350Z,74.35
2022-11-09T15:36:24.964Z,73.54
2022-11-09T15:39:16.836Z,73.73
2022-11-09T15:42:05.124Z,74.77
2022-11-09T15:44:55.497Z,74.78
2022-11-09T15:47:42.528Z,75.50
2022-11-09T15:50:29.148Z,76.79
2022-11-09T15:53:16.048Z,76.65
2022-11-09T15:56:03.135Z,76.92
2022-11-09T15:58:52.503Z,77.08
2022-11-09T16:01:40.156Z,77.45
2022-11-09T16:04:26.686Z,78.52
2022-11-09T16:07:15.856Z,78.40
2022-11-09T16:10:02.900Z,77.96
2022-11-09T16:12:49.233Z,77.67
2022-11-09T16:15:38.813Z,76.87
2022-11-09T16:18:26.324Z,76.26
2022-11-09T16:21:15.614Z,76.63
2022-11-09T16:24:02.024Z,77.39
2022-11-09T16:26:49.089Z,77.66
2022-11-09T16:29:35.766Z,77.86
2022-11-09T16:32:23.566Z,78.20
2022-11-09T16:35:27.949Z,79.38
2022-11-09T16:38:16.007Z,79.16
2022-11-09T16:41:04.631Z,79.45
2022-11-09T16:43:53.753Z,79.62
2022-11-09T16:46:43.381Z,80.14
2022-11-09T16:49:32.622Z,80.76
2022-11-09T16:52:19.238Z,81.67
2022-11-09T16:55:08.626Z,81.75
2022-11-09T16:57:55.075Z,81.92
2022-11-09T17:01:04.336Z,82.09
2022-11-09T17:03:52.012Z,82.28
2022-11-09T17:06:40.464Z,82.67
2022-11-09T17:09:27.122Z,82.38
2022-11-09T17:12:13.268Z,82.48
2022-11-09T17:15:00.113Z,83.07
2022-11-09T17:17:46.469Z,82.93
2022-11-09T17:20:33.843Z,82.91
2022-11-09T17:23:21.691Z,83.19
2022-11-09T17:26:09.554Z,83.60
2022-11-09T17:28:55.770Z,83.54
2022-11-09T17:31:42.531Z,83.82
2022-11-09T17:34:28.827Z,83.85
2022-11-09T17:37:15.548Z,84.35
2022-11-09T17:40:03.082Z,84.80
2022-11-09T17:42:49.293Z,84.99
2022-11-09T17:45:36.343Z,84.87
2022-11-09T17:48:23.168Z,84.89
2022-11-09T17:51:10.707Z,84.89
2022-11-09T17:53:57.881Z,85.29
2022-11-09T17:56:45.784Z,85.58
2022-11-09T17:59:32.661Z,85.71
2022-11-09T18:02:19.332Z,85.71
2022-11-09T18:05:06.509Z,85.96
2022-11-09T18:07:52.744Z,85.97
2022-11-09T18:10:41.593Z,86.12
2022-11-09T18:13:29.640Z,86.23
2022-11-09T18:16:18.024Z,86.46
2022-11-09T18:19:05.931Z,86.59
2022-11-09T18:21:52.522Z,86.75
2022-11-09T18:24:38.613Z,86.85
2022-11-09T18:27:30.050Z,86.81
2022-11-09T18:30:18.623Z,87.12
2022-11-09T18:33:05.772Z,87.46
2022-11-09T18:35:57.629Z,87.50
2022-11-09T18:38:44.849Z,87.83
2022-11-09T18:41:31.969Z,88.52
2022-11-09T18:44:18.259Z,88.43
2022-11-09T18:47:08.551Z,88.11
2022-11-09T18:49:55.422Z,88.01
2022-11-09T18:52:42.467Z,88.40
2022-11-09T18:55:28.698Z,88.53
2022-11-09T18:58:16.229Z,88.20
2022-11-09T19:01:06.030Z,88.36
2022-11-09T19:03:59.311Z,88.74
2022-11-09T19:06:46.293Z,88.75
2022-11-09T19:09:38.384Z,88.93
2022-11-09T19:12:25.142Z,88.81
2022-11-09T19:15:11.944Z,88.79
2022-11-09T19:17:58.108Z,88.42
2022-11-09T19:20:47.544Z,88.60
2022-11-09T19:23:34.911Z,88.56
2022-11-09T19:26:22.060Z,88.87
2022-11-09T19:29:09.324Z,88.77
2022-11-09T19:31:55.785Z,88.99
2022-11-09T19:34:42.867Z,89.34
2022-11-09T19:37:30.748Z,89.54
2022-11-09T19:40:17.505Z,89.23
2022-11-09T19:43:03.983Z,89.31
2022-11-09T19:45:50.139Z,89.38
2022-11-09T19:48:36.754Z,89.34
2022-11-09T19:51:23.169Z,89.28
2022-11-09T19:54:12.894Z,89.30
2022-11-09T19:56:59.543Z,89.21
2022-11-09T19:59:46.162Z,89.27
2022-11-09T20:02:32.333Z,89.44
2022-11-09T20:05:18.746Z,89.25
2022-11-09T20:08:06.582Z,89.19
2022-11-09T20:10:54.690Z,89.41
2022-11-09T20:13:41.154Z,89.47
2022-11-09T20:16:27.712Z,89.50
2022-11-09T20:19:14.774Z,89.65
2022-11-09T20:22:01.375Z,89.92
2022-11-09T20:24:48.253Z,89.89
2022-11-09T20:27:36.537Z,90.00
2022-11-09T20:30:23.409Z,89.97
2022-11-09T20:33:10.792Z,90.24
2022-11-09T20:35:57.756Z,90.11
2022-11-09T20:38:44.027Z,90.14
2022-11-09T20:41:32.761Z,90.21
2022-11-09T20:44:20.455Z,90.36
2022-11-09T20:47:06.948Z,90.74
2022-11-09T20:49:53.187Z,90.89
2022-11-09T20:52:39.745Z,91.10
2022-11-09T20:55:25.953Z,91.86
2022-11-09T20:58:13.788Z,91.91
2022-11-09T21:01:03.467Z,91.29
2022-11-09T21:03:51.953Z,91.84
2022-11-09T21:06:38.894Z,91.23
2022-11-09T21:09:26.065Z,91.80
2022-11-09T21:12:27.317Z,91.06
2022-11-09T21:15:15.145Z,91.23
2022-11-09T21:18:02.777Z,90.56
2022-11-09T21:20:49.308Z,90.68
2022-11-09T21:23:55.039Z,90.83
2022-11-09T21:26:58.647Z,91.02
2022-11-09T21:29:53.874Z,90.57
2022-11-09T21:32:41.354Z,90.05
2022-11-09T21:35:29.342Z,90.62
2022-11-09T21:38:16.032Z,90.29
2022-11-09T21:41:24.154Z,89.86
2022-11-09T21:44:12.867Z,89.94
2022-11-09T21:46:59.869Z,90.42
2022-11-09T21:49:46.613Z,89.99
2022-11-09T21:52:34.193Z,89.99
2022-11-09T21:55:20.899Z,90.16
2022-11-09T21:58:07.690Z,90.17
2022-11-09T22:00:54.148Z,90.20
2022-11-09T22:03:42.205Z,90.38
2022-11-09T22:06:28.604Z,90.27
2022-11-09T22:09:18.686Z,90.39
2022-11-09T22:12:22.722Z,90.50
2022-11-09T22:15:28.132Z,90.49
2022-11-09T22:18:34.621Z,90.73
2022-11-09T22:21:20.665Z,90.37
2022-11-09T22:24:07.764Z,90.33
2022-11-09T22:26:55.465Z,90.39
2022-11-09T22:29:42.106Z,90.10
2022-11-09T22:32:28.613Z,90.20
2022-11-09T22:35:15.245Z,89.58
2022-11-09T22:38:02.861Z,89.51
2022-11-09T22:40:49.749Z,90.03
2022-11-09T22:43:39.677Z,90.36
2022-11-09T22:46:26.204Z,90.09
2022-11-09T22:49:12.413Z,89.67
2022-11-09T22:51:58.690Z,89.64
2022-11-09T22:54:45.846Z,89.98
2022-11-09T22:57:32.925Z,90.53
2022-11-09T23:00:22.296Z,90.13
2022-11-09T23:03:08.688Z,90.05
2022-11-09T23:06:02.374Z,90.10
2022-11-09T23:08:50.327Z,90.28
2022-11-09T23:11:36.581Z,90.53
2022-11-09T23:14:44.538Z,90.15
2022-11-09T23:17:50.087Z,90.08
2022-11-09T23:20:37.452Z,90.36
2022-11-09T23:23:23.965Z,90.38
2022-11-09T23:26:11.744Z,90.38
2022-11-09T23:28:58.637Z,90.56
2022-11-09T23:31:45.082Z,90.37
2022-11-09T23:34:33.657Z,90.29
2022-11-09T23:37:20.089Z,90.49
2022-11-09T23:40:08.915Z,90.36
2022-11-09T23:43:00.841Z,90.29
2022-11-09T23:45:48.061Z,90.34
2022-11-09T23:48:34.545Z,90.50
2022-11-09T23:51:23.293Z,90.54
2022-11-09T23:54:09.728Z,90.56
2022-11-09T23:56:55.915Z,90.89
2022-11-09T23:59:42.830Z,90.84
